Time;durP1;ratioP1;P1;durP2;ratioP2;P2;SDS_P1;SDS_P2;PMS_P1;PMS_P2;Temp;Humidity;BMP_temperature;BMP_pressure;BME280_temperature;BME280_humidity;BME280_pressure;Samples;Min_cycle;Max_cycle;Signal;HPM_P1;HPM_P2
2022/05/18 00:00:09;;;;;;;1.42;1.10;;;;;;;;;;5071988;28;20477;-61
2022/05/18 00:02:35;;;;;;;1.77;1.25;;;;;;;;;;5072163;28;20074;-62
2022/05/18 00:05:01;;;;;;;1.95;1.30;;;;;;;;;;5075550;28;20379;-61
2022/05/18 00:07:26;;;;;;;2.53;1.30;;;;;;;;;;5090549;28;20035;-61
2022/05/18 00:09:53;;;;;;;1.75;1.50;;;;;;;;;;5075327;28;20033;-62
2022/05/18 00:12:19;;;;;;;2.30;1.30;;;;;;;;;;5080694;28;20159;-61
2022/05/18 00:14:45;;;;;;;1.83;1.30;;;;;;;;;;5075476;28;20020;-62
2022/05/18 00:17:11;;;;;;;2.22;1.23;;;;;;;;;;5095052;28;20069;-61
2022/05/18 00:19:38;;;;;;;3.42;1.30;;;;;;;;;;5076159;28;20113;-61
2022/05/18 00:22:04;;;;;;;3.03;1.35;;;;;;;;;;5076271;28;20478;-62
2022/05/18 00:24:30;;;;;;;2.17;1.40;;;;;;;;;;5077199;28;20873;-61
2022/05/18 00:26:56;;;;;;;3.60;1.55;;;;;;;;;;5089486;28;20025;-62
2022/05/18 00:29:22;;;;;;;2.35;1.30;;;;;;;;;;5084338;28;20031;-61
2022/05/18 00:31:49;;;;;;;2.40;1.17;;;;;;;;;;5094420;28;20477;-62
2022/05/18 00:34:16;;;;;;;2.97;1.70;;;;;;;;;;5093918;28;20495;-62
2022/05/18 00:36:42;;;;;;;2.88;1.23;;;;;;;;;;5093532;28;20469;-61
2022/05/18 00:39:08;;;;;;;1.63;1.52;;;;;;;;;;5083939;28;20032;-62
2022/05/18 00:41:35;;;;;;;1.98;1.38;;;;;;;;;;5074825;28;20374;-61
2022/05/18 00:44:01;;;;;;;1.60;1.42;;;;;;;;;;5075332;28;20024;-61
2022/05/18 00:46:27;;;;;;;3.20;1.17;;;;;;;;;;5074338;28;20044;-59
2022/05/18 00:48:54;;;;;;;2.00;1.38;;;;;;;;;;5083347;28;20032;-62
2022/05/18 00:51:23;;;;;;;2.72;1.60;;;;;;;;;;5094091;28;20578;-61
2022/05/18 00:53:54;;;;;;;3.25;1.55;;;;;;;;;;5085622;28;20078;-61
2022/05/18 00:56:21;;;;;;;1.52;1.13;;;;;;;;;;5075672;28;20146;-60
2022/05/18 00:58:51;;;;;;;2.05;1.40;;;;;;;;;;5084604;28;20080;-61
2022/05/18 01:01:17;;;;;;;2.72;1.50;;;;;;;;;;5081733;28;20058;-61
2022/05/18 01:03:45;;;;;;;2.00;1.20;;;;;;;;;;5082432;28;20032;-62
2022/05/18 01:06:14;;;;;;;1.23;1.10;;;;;;;;;;5094218;28;20028;-62
2022/05/18 01:08:43;;;;;;;1.35;1.13;;;;;;;;;;5085802;28;20036;-62
2022/05/18 01:11:09;;;;;;;1.85;1.20;;;;;;;;;;5075159;28;20032;-62
2022/05/18 01:13:35;;;;;;;1.63;1.30;;;;;;;;;;5074038;28;20055;-62
2022/05/18 01:16:01;;;;;;;2.05;1.40;;;;;;;;;;5074289;28;20496;-61
2022/05/18 01:18:27;;;;;;;2.13;1.20;;;;;;;;;;5082945;28;20472;-60
2022/05/18 01:20:54;;;;;;;2.63;1.88;;;;;;;;;;5093770;28;20020;-62
2022/05/18 01:23:20;;;;;;;2.05;1.20;;;;;;;;;;5077843;28;20035;-61
2022/05/18 01:25:46;;;;;;;1.35;1.25;;;;;;;;;;5093608;28;20020;-61
2022/05/18 01:28:13;;;;;;;1.85;1.45;;;;;;;;;;5078611;28;20107;-61
2022/05/18 01:30:42;;;;;;;2.70;1.38;;;;;;;;;;5073613;28;20033;-61
2022/05/18 01:33:09;;;;;;;2.03;1.10;;;;;;;;;;5074208;28;20504;-62
2022/05/18 01:35:37;;;;;;;1.77;1.30;;;;;;;;;;5073416;28;20424;-61
2022/05/18 01:38:06;;;;;;;1.92;1.65;;;;;;;;;;5075545;28;20036;-62
2022/05/18 01:40:41;;;;;;;2.28;1.23;;;;;;;;;;5074416;28;20033;-61
2022/05/18 01:43:26;;;;;;;1.98;1.23;;;;;;;;;;5094113;28;20099;-62
2022/05/18 01:45:53;;;;;;;1.50;1.40;;;;;;;;;;5091310;28;21033;-62
2022/05/18 01:48:21;;;;;;;2.30;1.30;;;;;;;;;;5093961;28;20081;-62
2022/05/18 01:50:48;;;;;;;2.63;1.60;;;;;;;;;;5085532;28;20362;-61
2022/05/18 01:53:14;;;;;;;2.85;1.75;;;;;;;;;;5076244;28;20493;-61
2022/05/18 01:55:40;;;;;;;2.38;1.48;;;;;;;;;;5091644;28;20479;-62
2022/05/18 01:58:06;;;;;;;2.83;1.95;;;;;;;;;;5093873;28;20024;-62
2022/05/18 02:00:32;;;;;;;2.20;1.58;;;;;;;;;;5084152;28;20073;-59
2022/05/18 02:02:58;;;;;;;1.98;1.60;;;;;;;;;;5093348;28;20028;-62
2022/05/18 02:05:25;;;;;;;1.95;1.65;;;;;;;;;;5088150;28;20477;-62
2022/05/18 02:07:51;;;;;;;2.85;1.75;;;;;;;;;;5089968;28;20027;-61
2022/05/18 02:10:17;;;;;;;1.92;1.50;;;;;;;;;;5076605;28;20077;-61
2022/05/18 02:12:43;;;;;;;2.40;1.30;;;;;;;;;;5092490;28;20027;-61
2022/05/18 02:15:10;;;;;;;1.73;1.30;;;;;;;;;;5091810;28;20028;-61
2022/05/18 02:17:37;;;;;;;1.80;1.60;;;;;;;;;;5092123;28;20048;-61
2022/05/18 02:20:03;;;;;;;2.60;1.45;;;;;;;;;;5079419;28;20112;-61
2022/05/18 02:22:29;;;;;;;1.80;1.30;;;;;;;;;;5073157;28;20028;-59
2022/05/18 02:24:55;;;;;;;2.17;1.30;;;;;;;;;;5073774;28;20033;-60
2022/05/18 02:27:21;;;;;;;1.48;1.33;;;;;;;;;;5073461;28;20023;-61
2022/05/18 02:29:47;;;;;;;2.17;1.38;;;;;;;;;;5087485;28;20465;-60
2022/05/18 02:32:13;;;;;;;4.38;1.45;;;;;;;;;;5092736;28;20032;-60
2022/05/18 02:34:39;;;;;;;2.25;1.58;;;;;;;;;;5090686;28;20029;-60
2022/05/18 02:37:06;;;;;;;3.00;1.50;;;;;;;;;;5092986;28;20016;-61
2022/05/18 02:39:32;;;;;;;1.95;1.40;;;;;;;;;;5084592;28;20036;-62
2022/05/18 02:41:58;;;;;;;2.83;1.40;;;;;;;;;;5091567;28;20035;-61
2022/05/18 02:44:24;;;;;;;2.08;1.52;;;;;;;;;;5080215;28;20492;-62
2022/05/18 02:46:50;;;;;;;1.70;1.25;;;;;;;;;;5072360;28;20053;-61
2022/05/18 02:49:16;;;;;;;3.10;1.40;;;;;;;;;;5080686;28;20085;-62
2022/05/18 02:51:42;;;;;;;2.55;1.52;;;;;;;;;;5077230;28;20031;-61
2022/05/18 02:56:53;;;;;;;2.90;1.92;;;;;;;;;;5076934;28;20032;-61
2022/05/18 02:59:20;;;;;;;4.45;1.80;;;;;;;;;;5090831;28;20047;-61
2022/05/18 03:01:47;;;;;;;2.10;1.45;;;;;;;;;;5091673;28;20379;-61
2022/05/18 03:04:13;;;;;;;2.13;1.65;;;;;;;;;;5076954;28;20397;-62
2022/05/18 03:06:39;;;;;;;1.73;1.48;;;;;;;;;;5071956;28;20028;-60
2022/05/18 03:09:05;;;;;;;4.38;2.05;;;;;;;;;;5075236;28;20449;-61
2022/05/18 03:11:31;;;;;;;2.30;1.67;;;;;;;;;;5092338;28;20100;-62
2022/05/18 03:13:57;;;;;;;2.45;1.38;;;;;;;;;;5090398;28;20028;-62
2022/05/18 03:16:25;;;;;;;2.20;1.55;;;;;;;;;;5078854;28;20021;-62
2022/05/18 03:18:51;;;;;;;2.40;1.60;;;;;;;;;;5079043;28;20089;-61
2022/05/18 03:24:02;;;;;;;2.80;1.75;;;;;;;;;;5075229;28;20535;-61
2022/05/18 03:26:28;;;;;;;2.90;1.92;;;;;;;;;;5092101;28;20042;-61
2022/05/18 03:28:55;;;;;;;1.67;1.45;;;;;;;;;;5091156;28;20036;-61
2022/05/18 03:31:21;;;;;;;2.83;2.08;;;;;;;;;;5073088;28;20107;-62
2022/05/18 03:33:48;;;;;;;2.58;1.50;;;;;;;;;;5062181;28;20037;-61
2022/05/18 03:36:15;;;;;;;2.88;1.90;;;;;;;;;;5077260;28;20028;-61
2022/05/18 03:38:42;;;;;;;2.45;1.70;;;;;;;;;;5090605;28;20392;-61
2022/05/18 03:41:08;;;;;;;2.03;1.50;;;;;;;;;;5081805;28;20382;-62
2022/05/18 03:43:34;;;;;;;2.50;1.60;;;;;;;;;;5071978;28;20020;-60
2022/05/18 03:46:00;;;;;;;1.65;1.30;;;;;;;;;;5071516;28;20166;-62
2022/05/18 03:48:27;;;;;;;1.60;1.50;;;;;;;;;;5072015;28;20059;-61
2022/05/18 03:50:53;;;;;;;2.65;1.70;;;;;;;;;;5066793;28;20017;-61
2022/05/18 03:53:20;;;;;;;2.95;1.60;;;;;;;;;;5056635;28;20389;-62
2022/05/18 03:55:46;;;;;;;2.05;1.70;;;;;;;;;;5053412;28;20027;-62
2022/05/18 03:58:12;;;;;;;2.60;1.73;;;;;;;;;;5051866;28;20041;-62
2022/05/18 04:00:40;;;;;;;1.95;1.52;;;;;;;;;;5065049;28;20025;-59
2022/05/18 04:03:07;;;;;;;2.70;1.70;;;;;;;;;;5069968;28;20104;-62
2022/05/18 04:05:33;;;;;;;4.68;1.70;;;;;;;;;;5070691;28;20028;-61
2022/05/18 04:08:00;;;;;;;5.95;1.80;;;;;;;;;;5056454;28;20116;-62
2022/05/18 04:10:26;;;;;;;2.13;1.42;;;;;;;;;;5060759;28;20369;-62
2022/05/18 04:12:52;;;;;;;2.65;1.60;;;;;;;;;;5069939;28;20047;-62
2022/05/18 04:15:18;;;;;;;2.03;1.83;;;;;;;;;;5067236;28;20031;-61
2022/05/18 04:17:45;;;;;;;2.22;1.55;;;;;;;;;;5050864;28;20072;-60
2022/05/18 04:20:12;;;;;;;2.28;1.98;;;;;;;;;;5067945;28;20108;-61
2022/05/18 04:22:38;;;;;;;2.10;1.58;;;;;;;;;;5070773;28;20025;-59
2022/05/18 04:25:05;;;;;;;3.08;1.80;;;;;;;;;;5071003;28;20080;-62
2022/05/18 04:27:31;;;;;;;2.25;1.70;;;;;;;;;;5069844;28;20032;-61
2022/05/18 04:29:57;;;;;;;2.90;2.08;;;;;;;;;;5052475;28;20094;-61
2022/05/18 04:32:24;;;;;;;2.33;1.80;;;;;;;;;;5064787;28;20020;-62
2022/05/18 04:34:50;;;;;;;2.75;1.90;;;;;;;;;;5070231;28;20035;-61
2022/05/18 04:37:17;;;;;;;2.78;1.65;;;;;;;;;;5070515;28;20033;-62
2022/05/18 04:39:43;;;;;;;3.75;2.25;;;;;;;;;;5072411;28;20173;-62
2022/05/18 04:42:09;;;;;;;2.70;1.95;;;;;;;;;;5091258;28;20501;-62
2022/05/18 04:44:35;;;;;;;2.25;2.00;;;;;;;;;;5090456;28;20389;-62
2022/05/18 04:47:01;;;;;;;2.10;1.80;;;;;;;;;;5086037;28;20044;-62
2022/05/18 04:49:27;;;;;;;5.25;1.92;;;;;;;;;;5072613;28;20082;-62
2022/05/18 04:51:54;;;;;;;2.80;1.80;;;;;;;;;;5070559;28;20115;-61
2022/05/18 04:54:20;;;;;;;3.13;1.95;;;;;;;;;;5073734;28;20035;-62
2022/05/18 04:56:46;;;;;;;3.03;1.88;;;;;;;;;;5070379;28;20021;-61
2022/05/18 04:59:12;;;;;;;1.65;1.35;;;;;;;;;;5071705;28;20526;-62
2022/05/18 05:01:38;;;;;;;5.05;2.50;;;;;;;;;;5074676;28;20024;-62
2022/05/18 05:04:09;;;;;;;6.72;2.05;;;;;;;;;;5076104;28;20512;-61
2022/05/18 05:06:35;;;;;;;3.00;1.93;;;;;;;;;;5080871;28;20036;-64
2022/05/18 05:09:01;;;;;;;4.15;1.95;;;;;;;;;;5092062;28;20032;-61
2022/05/18 05:11:27;;;;;;;3.33;2.30;;;;;;;;;;5094528;28;20350;-51
2022/05/18 05:13:53;;;;;;;3.70;2.70;;;;;;;;;;5093148;28;20108;-49
2022/05/18 05:16:19;;;;;;;6.88;3.03;;;;;;;;;;5085521;28;20029;-48
2022/05/18 05:18:45;;;;;;;3.58;2.83;;;;;;;;;;5073749;28;20105;-49
2022/05/18 05:21:11;;;;;;;5.63;2.80;;;;;;;;;;5074647;28;20021;-47
2022/05/18 05:23:37;;;;;;;5.63;3.17;;;;;;;;;;5074456;28;20024;-49
2022/05/18 05:26:03;;;;;;;6.57;2.63;;;;;;;;;;5084114;28;20612;-50
2022/05/18 05:28:30;;;;;;;6.32;3.03;;;;;;;;;;5094202;28;20042;-48
2022/05/18 05:31:00;;;;;;;5.47;2.78;;;;;;;;;;5085953;28;20093;-51
2022/05/18 05:33:26;;;;;;;5.60;3.15;;;;;;;;;;5082997;28;20029;-48
2022/05/18 05:35:52;;;;;;;3.30;2.22;;;;;;;;;;5085498;28;20032;-46
2022/05/18 05:38:18;;;;;;;4.97;2.10;;;;;;;;;;5093890;28;20158;-49
2022/05/18 05:40:46;;;;;;;4.00;2.25;;;;;;;;;;5093166;28;20040;-53
2022/05/18 05:43:12;;;;;;;4.15;2.40;;;;;;;;;;5094175;28;20016;-45
2022/05/18 05:45:39;;;;;;;2.60;2.00;;;;;;;;;;5079431;28;20111;-45
2022/05/18 05:48:05;;;;;;;7.07;2.90;;;;;;;;;;5090609;28;20590;-49
2022/05/18 05:50:32;;;;;;;6.03;3.25;;;;;;;;;;5093798;28;20020;-46
2022/05/18 05:52:58;;;;;;;4.90;2.70;;;;;;;;;;5092855;28;20107;-51
2022/05/18 05:55:25;;;;;;;4.88;3.38;;;;;;;;;;5077089;28;20032;-48
2022/05/18 05:57:54;;;;;;;4.90;2.35;;;;;;;;;;5073242;28;20043;-48
2022/05/18 06:00:20;;;;;;;7.38;2.25;;;;;;;;;;5074007;28;20019;-47
2022/05/18 06:02:46;;;;;;;3.85;2.20;;;;;;;;;;5072789;28;20060;-55
2022/05/18 06:05:13;;;;;;;5.90;2.75;;;;;;;;;;5090368;28;20059;-50
2022/05/18 06:07:39;;;;;;;6.28;2.70;;;;;;;;;;5081953;28;20420;-51
2022/05/18 06:10:05;;;;;;;8.10;2.50;;;;;;;;;;5072772;28;20107;-50
2022/05/18 06:12:32;;;;;;;4.38;2.40;;;;;;;;;;5073892;28;20032;-46
2022/05/18 06:14:59;;;;;;;6.22;2.83;;;;;;;;;;5080671;28;20024;-47
2022/05/18 06:17:25;;;;;;;5.88;2.47;;;;;;;;;;5074325;28;20488;-46
2022/05/18 06:19:51;;;;;;;5.50;2.88;;;;;;;;;;5072561;28;20043;-47
2022/05/18 06:22:17;;;;;;;5.90;2.50;;;;;;;;;;5073694;28;20021;-48
2022/05/18 06:24:47;;;;;;;9.23;3.10;;;;;;;;;;5079357;28;20032;-54
2022/05/18 06:27:13;;;;;;;5.57;2.85;;;;;;;;;;5084087;28;20354;-49
2022/05/18 06:29:40;;;;;;;5.40;2.70;;;;;;;;;;5093086;28;20027;-48
2022/05/18 06:32:06;;;;;;;7.93;2.72;;;;;;;;;;5092198;28;20023;-48
2022/05/18 06:34:32;;;;;;;2.88;2.22;;;;;;;;;;5091078;28;20027;-48
2022/05/18 06:36:58;;;;;;;5.57;2.53;;;;;;;;;;5081761;28;20020;-46
2022/05/18 06:39:24;;;;;;;4.85;2.67;;;;;;;;;;5086914;28;20036;-49
2022/05/18 06:41:50;;;;;;;4.70;2.53;;;;;;;;;;5082426;28;20053;-50
2022/05/18 06:44:18;;;;;;;4.25;2.53;;;;;;;;;;5073034;28;20038;-48
2022/05/18 06:46:44;;;;;;;5.38;3.00;;;;;;;;;;5073885;28;20040;-46
2022/05/18 06:49:11;;;;;;;5.70;2.83;;;;;;;;;;5073124;28;20044;-47
2022/05/18 06:51:39;;;;;;;5.60;2.45;;;;;;;;;;5092536;28;20028;-50
2022/05/18 06:54:06;;;;;;;5.40;2.40;;;;;;;;;;5081136;28;20044;-46
2022/05/18 06:56:33;;;;;;;6.25;2.60;;;;;;;;;;5080041;28;20106;-53
2022/05/18 06:59:00;;;;;;;4.80;2.40;;;;;;;;;;5072819;28;20075;-49
2022/05/18 07:01:27;;;;;;;6.28;2.88;;;;;;;;;;5072903;28;20024;-48
2022/05/18 07:03:53;;;;;;;7.72;2.40;;;;;;;;;;5080871;28;20032;-52
2022/05/18 07:06:21;;;;;;;8.02;3.40;;;;;;;;;;5090893;28;20021;-51
2022/05/18 07:08:47;;;;;;;7.93;2.63;;;;;;;;;;5088613;28;20029;-50
2022/05/18 07:11:13;;;;;;;3.70;1.90;;;;;;;;;;5087581;28;20023;-48
2022/05/18 07:13:40;;;;;;;4.63;2.15;;;;;;;;;;5091084;28;20028;-51
2022/05/18 07:16:06;;;;;;;5.25;2.13;;;;;;;;;;5089126;28;20369;-52
2022/05/18 07:18:33;;;;;;;7.72;2.55;;;;;;;;;;5091237;28;20445;-50
2022/05/18 07:21:02;;;;;;;3.83;2.45;;;;;;;;;;5072648;28;20036;-51
2022/05/18 07:23:28;;;;;;;4.57;2.25;;;;;;;;;;5071260;28;20489;-49
2022/05/18 07:25:55;;;;;;;3.83;2.25;;;;;;;;;;5076418;28;20174;-47
2022/05/18 07:28:21;;;;;;;3.05;2.13;;;;;;;;;;5090771;28;20024;-52
2022/05/18 07:30:49;;;;;;;3.42;1.80;;;;;;;;;;5063362;28;20165;-54
2022/05/18 07:33:15;;;;;;;4.47;2.33;;;;;;;;;;5070932;28;20047;-51
2022/05/18 07:35:41;;;;;;;7.43;2.58;;;;;;;;;;5079517;28;20474;-49
2022/05/18 07:38:07;;;;;;;5.15;2.95;;;;;;;;;;5073129;28;20041;-48
2022/05/18 07:40:33;;;;;;;4.22;2.42;;;;;;;;;;5090997;28;20024;-49
2022/05/18 07:43:01;;;;;;;7.63;2.35;;;;;;;;;;5089951;28;20036;-49
2022/05/18 07:45:27;;;;;;;3.67;2.10;;;;;;;;;;5089791;28;20577;-50
2022/05/18 07:47:54;;;;;;;2.95;1.90;;;;;;;;;;5072592;28;20059;-51
2022/05/18 07:50:21;;;;;;;4.28;2.10;;;;;;;;;;5090433;28;20491;-50
2022/05/18 07:52:47;;;;;;;3.85;2.00;;;;;;;;;;5072310;28;20051;-48
2022/05/18 07:55:13;;;;;;;4.28;2.10;;;;;;;;;;5086435;28;20028;-49
2022/05/18 07:57:39;;;;;;;3.30;1.70;;;;;;;;;;5080223;28;20493;-49
2022/05/18 08:00:06;;;;;;;4.10;2.17;;;;;;;;;;5068882;28;20048;-52
2022/05/18 08:02:33;;;;;;;4.95;2.83;;;;;;;;;;5070088;28;20038;-50
2022/05/18 08:05:00;;;;;;;3.63;2.15;;;;;;;;;;5079687;28;20032;-48
2022/05/18 08:07:26;;;;;;;5.65;2.38;;;;;;;;;;5082447;28;20024;-52
2022/05/18 08:15:22;;;;;;;4.18;1.90;;;;;;;;;;5090687;28;20085;-51
2022/05/18 08:17:48;;;;;;;2.42;1.90;;;;;;;;;;5075635;28;20025;-52
2022/05/18 08:20:16;;;;;;;5.90;2.53;;;;;;;;;;5078736;28;20028;-49
2022/05/18 08:22:43;;;;;;;3.85;2.08;;;;;;;;;;5073711;28;20437;-52
2022/05/18 08:25:09;;;;;;;4.18;2.53;;;;;;;;;;5071443;28;20032;-49
2022/05/18 08:27:39;;;;;;;3.80;1.92;;;;;;;;;;5069622;28;20061;-52
2022/05/18 08:30:06;;;;;;;3.42;1.88;;;;;;;;;;5071389;28;20020;-54
2022/05/18 08:32:33;;;;;;;3.20;2.17;;;;;;;;;;5070967;28;20420;-51
2022/05/18 08:34:59;;;;;;;3.33;2.28;;;;;;;;;;5088036;28;20075;-48
2022/05/18 08:37:25;;;;;;;3.30;1.83;;;;;;;;;;5080015;28;20060;-50
2022/05/18 08:39:51;;;;;;;3.67;1.90;;;;;;;;;;5074328;28;20036;-55
2022/05/18 08:42:19;;;;;;;3.47;2.45;;;;;;;;;;5087807;28;20476;-50
2022/05/18 08:44:45;;;;;;;5.47;2.25;;;;;;;;;;5089954;28;20052;-51
2022/05/18 08:47:16;;;;;;;4.30;2.10;;;;;;;;;;5074195;28;20048;-50
2022/05/18 08:49:48;;;;;;;4.72;1.90;;;;;;;;;;5073945;28;20064;-52
2022/05/18 08:52:14;;;;;;;3.72;1.95;;;;;;;;;;5087184;28;20024;-51
2022/05/18 08:54:56;;;;;;;5.72;2.35;;;;;;;;;;5078230;28;20108;-52
2022/05/18 08:57:26;;;;;;;3.53;1.83;;;;;;;;;;5074753;28;20086;-52
2022/05/18 08:59:54;;;;;;;2.42;1.88;;;;;;;;;;5073645;28;20151;-55
2022/05/18 09:02:23;;;;;;;4.90;1.98;;;;;;;;;;5076092;28;20025;-51
2022/05/18 09:05:07;;;;;;;3.22;1.88;;;;;;;;;;5089904;28;20024;-52
2022/05/18 09:07:54;;;;;;;6.22;2.40;;;;;;;;;;5083263;28;20043;-53
2022/05/18 09:10:26;;;;;;;3.53;2.17;;;;;;;;;;5073563;28;20036;-50
2022/05/18 09:12:52;;;;;;;2.65;1.60;;;;;;;;;;5075172;28;20027;-53
2022/05/18 09:15:22;;;;;;;2.38;1.95;;;;;;;;;;5075134;28;20017;-52
2022/05/18 09:17:53;;;;;;;3.10;2.03;;;;;;;;;;5073602;28;20163;-52
2022/05/18 09:20:19;;;;;;;;;;;;;;;;;;5073690;28;20093;-52
2022/05/18 09:22:48;;;;;;;3.75;2.30;;;;;;;;;;5089221;28;20388;-51
2022/05/18 09:25:17;;;;;;;5.10;2.45;;;;;;;;;;5091174;28;20206;-52
2022/05/18 09:27:50;;;;;;;2.47;1.60;;;;;;;;;;5093052;28;20571;-49
2022/05/18 09:30:19;;;;;;;4.28;2.03;;;;;;;;;;5090993;28;20020;-51
2022/05/18 09:32:48;;;;;;;3.25;2.05;;;;;;;;;;5073873;28;20024;-53
2022/05/18 09:35:20;;;;;;;4.22;2.25;;;;;;;;;;5081258;28;20659;-50
2022/05/18 09:37:46;;;;;;;2.63;2.22;;;;;;;;;;5053093;28;20064;-53
2022/05/18 09:40:16;;;;;;;2.83;1.90;;;;;;;;;;5052546;28;20053;-51
2022/05/18 09:42:46;;;;;;;4.18;2.03;;;;;;;;;;5066713;28;20032;-53
2022/05/18 09:45:22;;;;;;;3.05;1.70;;;;;;;;;;5088184;28;20024;-50
2022/05/18 09:47:51;;;;;;;4.82;1.73;;;;;;;;;;5084299;28;20062;-50
2022/05/18 09:50:17;;;;;;;4.03;2.50;;;;;;;;;;5091949;28;20062;-51
2022/05/18 09:52:44;;;;;;;4.72;1.90;;;;;;;;;;5082533;28;20033;-52
2022/05/18 09:55:12;;;;;;;2.80;1.88;;;;;;;;;;5085743;28;20389;-49
2022/05/18 09:57:56;;;;;;;3.47;2.00;;;;;;;;;;5082658;28;20043;-51
2022/05/18 10:00:24;;;;;;;7.50;2.60;;;;;;;;;;5071568;28;20113;-52
2022/05/18 10:08:31;;;;;;;2.70;1.95;;;;;;;;;;5071955;28;20457;-55
2022/05/18 10:11:06;;;;;;;2.70;1.80;;;;;;;;;;5075119;28;20488;-55
2022/05/18 10:13:34;;;;;;;3.67;2.10;;;;;;;;;;5079268;28;20029;-48
2022/05/18 10:16:02;;;;;;;3.45;2.10;;;;;;;;;;5071818;28;20097;-50
2022/05/18 10:18:28;;;;;;;3.63;2.20;;;;;;;;;;5072432;28;20412;-51
2022/05/18 10:21:21;;;;;;;2.33;1.83;;;;;;;;;;5072340;28;20530;-49
2022/05/18 10:23:53;;;;;;;2.58;1.50;;;;;;;;;;5065700;28;20040;-50
2022/05/18 10:26:39;;;;;;;3.28;2.00;;;;;;;;;;5091550;28;20027;-50
2022/05/18 10:29:08;;;;;;;4.43;2.05;;;;;;;;;;5090753;28;20035;-51
2022/05/18 10:31:37;;;;;;;2.45;1.65;;;;;;;;;;5082575;28;20055;-48
2022/05/18 10:34:09;;;;;;;3.50;1.67;;;;;;;;;;5083313;28;20107;-51
2022/05/18 10:36:41;;;;;;;2.28;1.52;;;;;;;;;;5090438;28;20028;-48
2022/05/18 10:39:08;;;;;;;4.68;2.28;;;;;;;;;;5090755;28;20043;-48
2022/05/18 10:41:39;;;;;;;2.42;1.77;;;;;;;;;;5077253;28;20020;-47
2022/05/18 10:44:06;;;;;;;;;;;;;;;;;;5074100;28;20032;-48
2022/05/18 10:46:38;;;;;;;4.60;2.08;;;;;;;;;;5075339;28;20289;-48
2022/05/18 10:49:24;;;;;;;3.10;1.75;;;;;;;;;;5073996;28;20082;-47
2022/05/18 10:51:51;;;;;;;3.53;1.75;;;;;;;;;;5091472;28;20062;-49
2022/05/18 10:54:18;;;;;;;2.88;1.80;;;;;;;;;;5089340;28;20032;-47
2022/05/18 10:56:46;;;;;;;2.03;1.70;;;;;;;;;;5091057;28;20381;-48
2022/05/18 10:59:12;;;;;;;3.05;1.40;;;;;;;;;;5072520;28;20605;-49
2022/05/18 11:01:42;;;;;;;2.53;1.83;;;;;;;;;;5070409;28;20108;-51
2022/05/18 11:04:14;;;;;;;2.38;1.60;;;;;;;;;;5071041;28;20028;-48
2022/05/18 11:06:39;;;;;;;;;;;;;;;;;;5072414;28;20044;-52
2022/05/18 11:09:07;;;;;;;4.03;1.70;;;;;;;;;;5070848;28;20308;-50
2022/05/18 11:11:52;;;;;;;1.98;1.50;;;;;;;;;;5071648;28;20028;-48
2022/05/18 11:14:27;;;;;;;2.47;1.80;;;;;;;;;;5069870;28;20474;-47
2022/05/18 11:17:13;;;;;;;3.65;1.63;;;;;;;;;;5071438;28;20036;-50
2022/05/18 11:19:39;;;;;;;2.13;1.55;;;;;;;;;;5071060;28;20489;-47
2022/05/18 11:22:23;;;;;;;2.40;1.80;;;;;;;;;;5070565;28;20541;-51
2022/05/18 11:24:55;;;;;;;2.70;1.50;;;;;;;;;;5071539;28;20036;-49
2022/05/18 11:27:26;;;;;;;1.88;1.58;;;;;;;;;;5070724;28;20032;-49
2022/05/18 11:29:52;;;;;;;;;;;;;;;;;;5071564;28;20079;-51
2022/05/18 11:32:26;;;;;;;3.05;1.52;;;;;;;;;;5070111;28;19963;-49
2022/05/18 11:35:15;;;;;;;2.17;1.90;;;;;;;;;;5070812;28;20020;-48
2022/05/18 11:38:17;;;;;;;3.13;1.60;;;;;;;;;;5042372;28;20116;-49
2022/05/18 11:40:54;;;;;;;1.50;1.40;;;;;;;;;;5007954;28;20466;-49
2022/05/18 11:43:28;;;;;;;3.15;1.70;;;;;;;;;;5041799;28;20033;-47
2022/05/18 11:45:54;;;;;;;2.28;1.73;;;;;;;;;;5059630;28;20044;-53
2022/05/18 11:48:28;;;;;;;3.78;1.52;;;;;;;;;;5069941;28;20029;-48
2022/05/18 11:51:02;;;;;;;4.32;1.70;;;;;;;;;;5070930;28;20021;-50
2022/05/18 11:53:40;;;;;;;1.92;1.65;;;;;;;;;;5069432;28;20097;-47
2022/05/18 11:56:19;;;;;;;5.07;1.58;;;;;;;;;;5070097;28;20024;-54
2022/05/18 11:59:03;;;;;;;2.97;1.75;;;;;;;;;;5070767;28;20068;-47
2022/05/18 12:01:47;;;;;;;5.03;1.85;;;;;;;;;;5070520;28;20109;-51
2022/05/18 12:04:16;;;;;;;7.32;2.15;;;;;;;;;;5069825;28;20133;-49
2022/05/18 12:06:45;;;;;;;5.00;1.50;;;;;;;;;;5070026;28;20112;-47
2022/05/18 12:09:30;;;;;;;2.33;1.52;;;;;;;;;;5069329;28;20412;-48
2022/05/18 12:12:14;;;;;;;3.33;1.65;;;;;;;;;;5049046;28;20028;-50
2022/05/18 12:14:49;;;;;;;4.25;1.60;;;;;;;;;;5061737;28;20103;-48
2022/05/18 12:17:17;;;;;;;2.95;1.40;;;;;;;;;;5069788;28;20032;-47
2022/05/18 12:19:46;;;;;;;2.85;1.52;;;;;;;;;;5070279;28;20037;-47
2022/05/18 12:22:14;;;;;;;4.13;1.65;;;;;;;;;;5069786;28;20025;-47
2022/05/18 12:24:42;;;;;;;3.85;1.50;;;;;;;;;;5070599;28;20032;-49
2022/05/18 12:27:09;;;;;;;2.20;1.27;;;;;;;;;;5069855;28;20029;-50
2022/05/18 12:29:36;;;;;;;3.72;1.60;;;;;;;;;;5070502;28;20036;-48
2022/05/18 12:32:02;;;;;;;2.90;1.33;;;;;;;;;;5070557;28;20051;-49
2022/05/18 12:34:34;;;;;;;2.88;1.77;;;;;;;;;;5069883;28;20100;-48
2022/05/18 12:37:16;;;;;;;5.03;1.50;;;;;;;;;;5070222;28;20051;-48
2022/05/18 12:39:48;;;;;;;1.70;1.40;;;;;;;;;;5070370;28;20039;-51
2022/05/18 12:42:16;;;;;;;2.67;2.03;;;;;;;;;;5069739;28;20031;-48
2022/05/18 12:44:44;;;;;;;2.13;1.35;;;;;;;;;;5070562;28;20028;-47
2022/05/18 12:47:18;;;;;;;3.60;1.58;;;;;;;;;;5069289;28;20149;-49
2022/05/18 12:49:45;;;;;;;3.08;1.73;;;;;;;;;;5069963;28;20033;-48
2022/05/18 12:52:29;;;;;;;3.35;1.88;;;;;;;;;;5069098;28;20409;-48
2022/05/18 12:54:56;;;;;;;3.25;1.70;;;;;;;;;;5070158;28;20033;-50
2022/05/18 12:57:37;;;;;;;4.03;1.45;;;;;;;;;;5069495;28;20016;-48
2022/05/18 13:00:03;;;;;;;2.42;1.70;;;;;;;;;;5075068;28;20615;-49
2022/05/18 13:02:42;;;;;;;3.20;1.77;;;;;;;;;;5071509;28;20139;-49
2022/05/18 13:05:24;;;;;;;2.40;1.50;;;;;;;;;;5069196;28;20377;-48
2022/05/18 13:07:50;;;;;;;3.88;1.90;;;;;;;;;;5069857;28;20036;-47
2022/05/18 13:10:17;;;;;;;1.63;1.42;;;;;;;;;;5068891;28;20024;-48
2022/05/18 13:12:42;;;;;;;2.67;1.48;;;;;;;;;;5069899;28;20031;-48
2022/05/18 13:15:21;;;;;;;2.22;1.40;;;;;;;;;;5068730;28;20021;-50
2022/05/18 13:17:50;;;;;;;1.98;1.63;;;;;;;;;;5070030;28;20042;-47
2022/05/18 13:20:29;;;;;;;2.55;1.73;;;;;;;;;;5071338;28;20024;-53
2022/05/18 13:23:00;;;;;;;2.53;1.50;;;;;;;;;;5069083;28;20025;-48
2022/05/18 13:25:32;;;;;;;3.85;1.70;;;;;;;;;;5087085;28;20020;-50
2022/05/18 13:27:58;;;;;;;;;;;;;;;;;;5093859;28;20024;-48
2022/05/18 13:30:44;;;;;;;2.35;1.58;;;;;;;;;;5081621;28;19904;-48
2022/05/18 13:33:11;;;;;;;3.38;1.83;;;;;;;;;;5072222;28;20028;-50
2022/05/18 13:35:37;;;;;;;1.88;1.67;;;;;;;;;;5072805;28;20048;-49
2022/05/18 13:38:14;;;;;;;4.45;1.70;;;;;;;;;;5072744;28;20037;-49
2022/05/18 13:40:55;;;;;;;2.65;1.67;;;;;;;;;;5072619;28;20484;-47
2022/05/18 13:43:22;;;;;;;3.03;1.40;;;;;;;;;;5071888;28;20020;-47
2022/05/18 13:45:51;;;;;;;3.10;1.73;;;;;;;;;;5072438;28;20122;-52
2022/05/18 13:48:17;;;;;;;5.25;1.75;;;;;;;;;;5072165;28;20032;-48
2022/05/18 13:50:48;;;;;;;4.60;1.80;;;;;;;;;;5072439;28;20047;-48
2022/05/18 13:53:27;;;;;;;6.83;1.50;;;;;;;;;;5081240;28;20028;-49
2022/05/18 13:55:56;;;;;;;4.18;1.63;;;;;;;;;;5072705;28;20021;-47
2022/05/18 13:58:22;;;;;;;2.08;1.67;;;;;;;;;;5071919;28;20025;-47
2022/05/18 14:01:08;;;;;;;2.75;1.70;;;;;;;;;;5072917;28;20028;-46
2022/05/18 14:03:39;;;;;;;4.18;1.70;;;;;;;;;;5072781;28;20103;-46
2022/05/18 14:06:07;;;;;;;2.47;1.77;;;;;;;;;;5072170;28;20029;-49
2022/05/18 14:08:35;;;;;;;3.38;1.52;;;;;;;;;;5072671;28;20032;-45
2022/05/18 14:11:02;;;;;;;3.35;1.58;;;;;;;;;;5072361;28;20116;-46
2022/05/18 14:13:28;;;;;;;3.97;1.33;;;;;;;;;;5071029;28;20029;-45
2022/05/18 14:15:55;;;;;;;6.35;1.75;;;;;;;;;;5072712;28;20373;-45
2022/05/18 14:18:29;;;;;;;3.05;1.70;;;;;;;;;;5070845;28;20036;-46
2022/05/18 14:20:57;;;;;;;2.47;1.60;;;;;;;;;;5072351;28;20046;-47
2022/05/18 14:23:32;;;;;;;4.45;1.40;;;;;;;;;;5071629;28;20033;-47
2022/05/18 14:26:02;;;;;;;3.03;1.95;;;;;;;;;;5072409;28;20035;-45
2022/05/18 14:28:30;;;;;;;1.90;1.40;;;;;;;;;;5071171;28;20491;-45
2022/05/18 14:30:58;;;;;;;2.40;1.50;;;;;;;;;;5072376;28;20032;-46
2022/05/18 14:33:26;;;;;;;1.88;1.40;;;;;;;;;;5071672;28;20040;-45
2022/05/18 14:35:53;;;;;;;3.10;1.42;;;;;;;;;;5071212;28;20484;-46
2022/05/18 14:38:25;;;;;;;2.10;1.50;;;;;;;;;;5070937;28;20569;-47
2022/05/18 14:40:52;;;;;;;2.88;1.38;;;;;;;;;;5071912;28;20083;-46
2022/05/18 14:43:21;;;;;;;2.95;1.70;;;;;;;;;;5071295;28;20024;-45
2022/05/18 14:45:54;;;;;;;3.58;1.98;;;;;;;;;;5071887;28;20048;-45
2022/05/18 14:48:28;;;;;;;2.35;1.63;;;;;;;;;;5070121;28;20028;-46
2022/05/18 14:51:12;;;;;;;1.80;1.23;;;;;;;;;;5070874;28;20373;-45
2022/05/18 14:54:08;;;;;;;2.55;1.30;;;;;;;;;;5072047;28;20029;-45
2022/05/18 14:56:39;;;;;;;2.00;1.38;;;;;;;;;;5058668;28;20048;-46
2022/05/18 14:59:08;;;;;;;2.03;1.23;;;;;;;;;;5071430;28;20029;-47
2022/05/18 15:01:39;;;;;;;1.73;1.40;;;;;;;;;;5072040;28;20024;-45
2022/05/18 15:04:08;;;;;;;1.52;1.30;;;;;;;;;;5071506;28;20017;-48
2022/05/18 15:06:36;;;;;;;1.40;1.30;;;;;;;;;;5071665;28;20048;-45
2022/05/18 15:09:03;;;;;;;2.10;1.23;;;;;;;;;;5071712;28;20162;-47
2022/05/18 15:11:29;;;;;;;3.92;1.35;;;;;;;;;;5071243;28;20033;-46